createdAt,value
2022-09-01T00:00:52.608Z,0
2022-09-01T00:05:54.254Z,0
2022-09-01T00:10:56.122Z,0
2022-09-01T00:15:57.979Z,0.88715
2022-09-01T00:20:59.947Z,0.88715
2022-09-01T00:26:02.031Z,0
2022-09-01T00:31:03.727Z,0
2022-09-01T00:36:05.543Z,0.88715
2022-09-01T00:41:07.749Z,0
2022-09-01T00:46:09.559Z,0
2022-09-01T00:51:12.013Z,0
2022-09-01T00:56:14.104Z,0
2022-09-01T01:01:16.140Z,0.88715
2022-09-01T01:06:18.054Z,0.88715
2022-09-01T01:11:20.832Z,0
2022-09-01T01:16:22.330Z,0.88715
2022-09-01T01:21:24.107Z,0
2022-09-01T01:26:26.027Z,0.88715
2022-09-01T01:31:27.810Z,0.88715
2022-09-01T01:36:29.239Z,0
2022-09-01T01:41:31.071Z,0.88715
2022-09-01T01:46:32.899Z,0.88715
2022-09-01T01:51:34.566Z,0
2022-09-01T01:56:36.485Z,0
2022-09-01T02:01:38.290Z,0.88715
2022-09-01T02:06:40.187Z,0
2022-09-01T02:11:42.952Z,0
2022-09-01T02:16:44.933Z,0.88715
2022-09-01T02:21:46.436Z,0
2022-09-01T02:26:48.481Z,0
2022-09-01T02:31:50.004Z,0.88715
2022-09-01T02:36:51.615Z,0.88715
2022-09-01T02:41:53.721Z,0
2022-09-01T02:46:55.234Z,0.88715
2022-09-01T02:51:57.585Z,0
2022-09-01T02:56:59.564Z,0.88715
2022-09-01T03:02:01.484Z,0
2022-09-01T03:07:03.201Z,0.88715
2022-09-01T03:12:05.698Z,0
2022-09-01T03:17:07.529Z,0.88715
2022-09-01T03:22:08.981Z,0
2022-09-01T03:27:10.866Z,0
2022-09-01T03:32:12.588Z,0
2022-09-01T03:37:14.565Z,0.88715
2022-09-01T03:42:16.359Z,0.88715
2022-09-01T03:47:18.298Z,0.88715
2022-09-01T03:52:20.150Z,0.88715
2022-09-01T03:57:21.796Z,0
2022-09-01T04:02:23.307Z,0.47405
2022-09-01T04:07:26.946Z,3.85445
2022-09-01T04:12:29.027Z,4.59225
2022-09-01T04:17:30.772Z,5.62945
2022-09-01T04:22:32.894Z,15.1782
2022-09-01T04:27:34.765Z,31.5734
2022-09-01T04:32:36.822Z,44.059
2022-09-01T04:37:38.946Z,61.37645
2022-09-01T04:42:41.170Z,88.2283
2022-09-01T04:47:43.389Z,117.2194
2022-09-01T04:52:45.186Z,150.489
2022-09-01T04:57:47.023Z,182.4123
2022-09-01T05:02:48.778Z,214.52005
2022-09-01T05:07:55.286Z,246.81225
2022-09-01T05:12:57.535Z,278.92
2022-09-01T05:17:59.344Z,304.79445
2022-09-01T05:23:01.811Z,333.17705
2022-09-01T05:28:03.818Z,351.28745
2022-09-01T05:33:05.527Z,382.10405
2022-09-01T05:38:07.479Z,403.3311
2022-09-01T05:43:09.843Z,427.1956
2022-09-01T05:48:11.804Z,454.9887
2022-09-01T05:53:13.575Z,487.00515
2022-09-01T05:58:16.075Z,520.31275
2022-09-01T06:03:17.825Z,562.6014
2022-09-01T06:08:19.908Z,594.673
2022-09-01T06:13:22.267Z,626.486
2022-09-01T06:18:29.225Z,648.21125
2022-09-01T06:23:30.682Z,673.2376
2022-09-01T06:28:32.529Z,690.4999
2022-09-01T06:33:33.941Z,720.17365
2022-09-01T06:38:35.727Z,736.643
2022-09-01T06:43:37.911Z,756.8375
2022-09-01T06:48:39.780Z,767.07355
2022-09-01T06:53:41.950Z,790.32955
2022-09-01T06:58:43.880Z,802.70485
2022-09-01T07:03:45.896Z,826.09015
2022-09-01T07:14:20.356Z,870.7215
2022-09-01T07:19:22.413Z,889.03535
2022-09-01T07:24:29.407Z,905.8736
2022-09-01T07:29:33.269Z,938.683
2022-09-01T07:34:39.058Z,946.35575
2022-09-01T07:39:48.606Z,967.0123
2022-09-01T07:44:51.597Z,990.10285
2022-09-01T07:50:24.143Z,1008.12195
2022-09-01T07:55:26.582Z,1034.1637
2022-09-01T08:00:31.134Z,1063.9306
2022-09-01T08:05:33.867Z,1083.11155
2022-09-01T08:10:36.882Z,1111.29255
2022-09-01T08:15:41.375Z,1134.08835
2022-09-01T08:21:08.431Z,1176.58045
2022-09-01T08:26:10.643Z,1191.05885
2022-09-01T08:31:12.889Z,1216.3818
2022-09-01T08:36:14.856Z,1260.14605
2022-09-01T08:41:16.984Z,1289.17515
2022-09-01T08:46:19.420Z,1316.13915
2022-09-01T08:51:21.395Z,1358.37265
2022-09-01T08:56:23.464Z,1357.30395
2022-09-01T09:01:24.999Z,1403.8711
2022-09-01T09:06:26.483Z,1410.32685
2022-09-01T09:11:28.057Z,1455.51155
2022-09-01T09:16:30.182Z,1499.44125
2022-09-01T09:21:31.788Z,1508.40515
2022-09-01T09:26:42.664Z,1550.63865
2022-09-01T09:31:45.882Z,1612.6236
2022-09-01T09:36:54.516Z,1585.21655
2022-09-01T09:41:57.792Z,1692.8121
2022-09-01T09:47:00.699Z,1677.48745
2022-09-01T09:52:02.533Z,1654.67265
2022-09-01T09:57:04.860Z,1657.93575
2022-09-01T10:02:06.717Z,1695.8546
2022-09-01T10:07:08.658Z,1674.1085
2022-09-01T10:12:10.623Z,1816.24765
2022-09-01T10:17:13.203Z,1852.70805
2022-09-01T10:22:16.909Z,1910.87655
2022-09-01T10:27:18.793Z,1846.9711
2022-09-01T10:32:35.063Z,1901.91265
2022-09-01T10:37:39.156Z,1935.7546
2022-09-01T10:42:45.323Z,1930.0918
2022-09-01T10:47:48.112Z,1828.32635
2022-09-01T10:52:51.239Z,1894.27605
2022-09-01T10:57:53.390Z,1940.98965
2022-09-01T11:02:55.262Z,2036.00645
2022-09-01T11:08:01.303Z,2034.7686
2022-09-01T11:13:03.897Z,2103.2093
2022-09-01T11:18:06.847Z,2146.0323
2022-09-01T11:23:08.312Z,2132.7709
2022-09-01T11:28:10.654Z,2140.64525
2022-09-01T11:33:12.265Z,2198.6826
2022-09-01T11:38:13.934Z,2169.61735
2022-09-01T11:43:16.582Z,2118.43895
2022-09-01T11:48:18.962Z,2133.1741
2022-09-01T11:53:20.520Z,2053.2632
2022-09-01T11:58:22.346Z,2122.9932
2022-09-01T12:03:24.398Z,2144.8649
2022-09-01T12:08:26.640Z,2137.7455
2022-09-01T12:13:28.134Z,2155.9472
2022-09-01T12:18:30.166Z,2141.30335
2022-09-01T12:23:31.708Z,2158.89655
2022-09-01T12:28:33.280Z,2132.56005
2022-09-01T12:33:35.312Z,2154.92995
2022-09-01T12:38:37.265Z,2187.3876
2022-09-01T12:43:38.727Z,2167.61715
2022-09-01T12:48:40.435Z,2125.88185
2022-09-01T12:53:42.588Z,2137.85025
2022-09-01T12:58:44.169Z,2161.19755
2022-09-01T13:03:45.752Z,2103.67555
2022-09-01T13:08:47.351Z,2046.76205
2022-09-01T13:13:48.791Z,2008.56745
2022-09-01T13:19:11.802Z,1963.7155
2022-09-01T13:24:14.756Z,1901.7857
2022-09-01T13:29:16.778Z,1782.8701
2022-09-01T13:34:18.667Z,1682.83885
2022-09-01T13:39:25.462Z,1622.88285
2022-09-01T13:44:27.065Z,1627.0872
2022-09-01T13:50:06.100Z,1577.1638
2022-09-01T13:55:09.503Z,1508.0233
2022-09-01T14:00:11.619Z,1434.475
2022-09-01T14:05:13.449Z,1347.612
2022-09-01T14:10:15.212Z,1269.5456
2022-09-01T14:15:18.065Z,1161.3814
2022-09-01T14:20:22.827Z,1083.73905
2022-09-01T14:25:24.786Z,1032.0453
2022-09-01T14:30:31.011Z,912.42805
2022-09-01T14:35:33.662Z,828.73685
2022-09-01T14:40:35.910Z,751.51855
2022-09-01T14:45:37.453Z,668.1221
2022-09-01T14:50:39.843Z,593.91015
2022-09-01T14:55:44.133Z,497.0507
2022-09-01T15:00:46.090Z,410.09455
2022-09-01T15:05:48.019Z,330.16465
2022-09-01T15:10:49.909Z,263.08925
2022-09-01T15:15:51.843Z,257.40005
2022-09-01T15:20:53.553Z,166.41055
2022-09-01T15:25:55.226Z,128.1144
2022-09-01T15:30:56.996Z,104.55305
2022-09-01T15:35:58.825Z,91.4571
2022-09-01T15:41:00.635Z,69.71285
2022-09-01T15:46:02.477Z,50.5509
2022-09-01T15:51:04.596Z,29.56345
2022-09-01T15:56:06.291Z,16.8934
2022-09-01T16:01:08.393Z,5.33005
2022-09-01T16:06:10.479Z,3.3184
2022-09-01T16:11:12.282Z,1.6592
2022-09-01T16:16:14.332Z,0.4148
2022-09-01T16:21:17.074Z,0
2022-09-01T16:26:18.863Z,0.88715
2022-09-01T16:31:20.696Z,0.88715
2022-09-01T16:36:22.224Z,0
2022-09-01T16:41:23.901Z,0
2022-09-01T16:46:25.911Z,0
2022-09-01T16:51:28.218Z,0.88715
2022-09-01T16:56:29.793Z,0
2022-09-01T17:01:31.309Z,0.88715
2022-09-01T17:06:32.969Z,0
2022-09-01T17:11:34.512Z,0
2022-09-01T17:16:36.019Z,0.88715
2022-09-01T17:21:37.862Z,0
2022-09-01T17:26:39.454Z,0
2022-09-01T17:31:41.274Z,0
2022-09-01T17:36:46.823Z,0
2022-09-01T17:41:48.661Z,0
2022-09-01T17:46:50.449Z,0
2022-09-01T17:51:52.290Z,0
2022-09-01T17:56:53.911Z,0
2022-09-01T18:01:55.524Z,0.88715
2022-09-01T18:06:57.308Z,0
2022-09-01T18:11:58.849Z,0
2022-09-01T18:17:00.603Z,0
2022-09-01T18:22:03.432Z,0
2022-09-01T18:27:04.859Z,0.88715
2022-09-01T18:32:06.599Z,0
2022-09-01T18:37:08.143Z,0
2022-09-01T18:42:09.653Z,0
2022-09-01T18:47:13.684Z,0.88715
2022-09-01T18:52:16.001Z,0.88715
2022-09-01T18:57:17.516Z,0
2022-09-01T19:02:19.699Z,0
2022-09-01T19:07:21.772Z,0
2022-09-01T19:12:23.597Z,0
2022-09-01T19:17:25.188Z,0
2022-09-01T19:22:27.074Z,0
2022-09-01T19:27:28.543Z,0
2022-09-01T19:32:30.272Z,0
2022-09-01T19:37:31.950Z,0
2022-09-01T19:42:33.456Z,0
2022-09-01T19:47:35.148Z,0
2022-09-01T19:52:37.191Z,0.88715
2022-09-01T19:57:38.644Z,0.88715
2022-09-01T20:02:40.393Z,0
2022-09-01T20:07:42.319Z,0
2022-09-01T20:12:44.357Z,0
2022-09-01T20:17:46.089Z,0.88715
2022-09-01T20:22:48.059Z,0.88715
2022-09-01T20:27:49.816Z,0
2022-09-01T20:32:51.729Z,0
2022-09-01T20:37:53.785Z,0
2022-09-01T20:42:55.651Z,0
2022-09-01T20:47:58.023Z,0.88715
2022-09-01T20:53:00.793Z,0.88715
2022-09-01T20:58:02.336Z,0
2022-09-01T21:03:04.324Z,0.88715
2022-09-01T21:08:06.402Z,0
2022-09-01T21:13:08.112Z,0
2022-09-01T21:18:09.974Z,0
2022-09-01T21:23:12.615Z,0
2022-09-01T21:28:14.197Z,0
2022-09-01T21:33:15.951Z,0
2022-09-01T21:38:17.821Z,0
2022-09-01T21:43:19.773Z,0
2022-09-01T21:48:21.645Z,0
2022-09-01T21:53:24.691Z,0
2022-09-01T21:58:26.657Z,0.88715
2022-09-01T22:03:28.124Z,0.88715
2022-09-01T22:08:29.975Z,0
2022-09-01T22:13:31.595Z,0
2022-09-01T22:18:33.328Z,0
2022-09-01T22:23:35.187Z,0
2022-09-01T22:28:37.026Z,0.88715
2022-09-01T22:33:38.734Z,0
2022-09-01T22:38:40.643Z,0
2022-09-01T22:43:42.127Z,0
2022-09-01T22:48:43.847Z,0
2022-09-01T22:53:45.882Z,0
2022-09-01T22:58:48.227Z,0
2022-09-01T23:03:49.993Z,0
2022-09-01T23:08:54.115Z,0
2022-09-01T23:13:55.770Z,0
2022-09-01T23:18:58.176Z,0
2022-09-01T23:24:00.271Z,0.88715
2022-09-01T23:29:02.141Z,0.88715
2022-09-01T23:34:03.987Z,0
2022-09-01T23:39:05.788Z,0
2022-09-01T23:44:07.558Z,0.88715
2022-09-01T23:49:09.369Z,0
2022-09-01T23:54:11.388Z,0.88715
2022-09-01T23:59:13.369Z,0.88715
